sensor_id;sensor_type;location;lat;lon;timestamp;temperature;humidity
58413;DHT22;44209;52.952;6.790;2023-04-29T00:00:43;9.60;99.90
58413;DHT22;44209;52.952;6.790;2023-04-29T00:03:09;9.60;99.90
58413;DHT22;44209;52.952;6.790;2023-04-29T00:05:34;9.60;99.90
58413;DHT22;44209;52.952;6.790;2023-04-29T00:08:00;9.60;99.90
58413;DHT22;44209;52.952;6.790;2023-04-29T00:10:26;9.50;99.90
58413;DHT22;44209;52.952;6.790;2023-04-29T00:12:52;9.50;99.90
58413;DHT22;44209;52.952;6.790;2023-04-29T00:15:18;9.50;99.90
58413;DHT22;44209;52.952;6.790;2023-04-29T00:17:44;9.50;99.90
58413;DHT22;44209;52.952;6.790;2023-04-29T00:20:11;9.50;99.90
58413;DHT22;44209;52.952;6.790;2023-04-29T00:22:37;9.50;99.90
58413;DHT22;44209;52.952;6.790;2023-04-29T00:25:04;9.50;99.90
58413;DHT22;44209;52.952;6.790;2023-04-29T00:27:30;9.50;99.90
58413;DHT22;44209;52.952;6.790;2023-04-29T00:29:57;9.40;99.90
58413;DHT22;44209;52.952;6.790;2023-04-29T00:32:23;9.50;99.90
58413;DHT22;44209;52.952;6.790;2023-04-29T00:34:49;9.50;99.90
58413;DHT22;44209;52.952;6.790;2023-04-29T00:37:16;9.40;99.90
58413;DHT22;44209;52.952;6.790;2023-04-29T00:39:41;9.40;99.90
58413;DHT22;44209;52.952;6.790;2023-04-29T00:42:08;9.40;99.90
58413;DHT22;44209;52.952;6.790;2023-04-29T00:44:34;9.40;99.90
58413;DHT22;44209;52.952;6.790;2023-04-29T00:47:00;9.40;99.90
58413;DHT22;44209;52.952;6.790;2023-04-29T00:49:25;9.40;99.90
58413;DHT22;44209;52.952;6.790;2023-04-29T00:51:53;9.30;99.90
58413;DHT22;44209;52.952;6.790;2023-04-29T00:54:20;9.30;99.90
58413;DHT22;44209;52.952;6.790;2023-04-29T00:56:46;9.30;99.90
58413;DHT22;44209;52.952;6.790;2023-04-29T00:59:13;9.30;99.90
58413;DHT22;44209;52.952;6.790;2023-04-29T01:01:41;9.30;99.90
58413;DHT22;44209;52.952;6.790;2023-04-29T01:04:07;9.30;99.90
58413;DHT22;44209;52.952;6.790;2023-04-29T01:06:48;9.30;99.90
58413;DHT22;44209;52.952;6.790;2023-04-29T01:14:36;9.20;99.90
58413;DHT22;44209;52.952;6.790;2023-04-29T01:17:08;9.20;99.90
58413;DHT22;44209;52.952;6.790;2023-04-29T01:19:51;9.20;99.90
58413;DHT22;44209;52.952;6.790;2023-04-29T01:22:19;9.20;99.90
58413;DHT22;44209;52.952;6.790;2023-04-29T01:24:47;9.20;99.90
58413;DHT22;44209;52.952;6.790;2023-04-29T01:36:11;9.20;99.90
58413;DHT22;44209;52.952;6.790;2023-04-29T01:39:02;9.10;99.90
58413;DHT22;44209;52.952;6.790;2023-04-29T01:41:42;9.10;99.90
58413;DHT22;44209;52.952;6.790;2023-04-29T01:44:14;9.10;99.90
58413;DHT22;44209;52.952;6.790;2023-04-29T01:46:42;9.10;99.90
58413;DHT22;44209;52.952;6.790;2023-04-29T01:49:08;9.10;99.90
58413;DHT22;44209;52.952;6.790;2023-04-29T01:51:34;9.10;99.90
58413;DHT22;44209;52.952;6.790;2023-04-29T01:54:00;9.10;99.90
58413;DHT22;44209;52.952;6.790;2023-04-29T01:56:25;9.10;99.90
58413;DHT22;44209;52.952;6.790;2023-04-29T01:58:51;9.10;99.90
58413;DHT22;44209;52.952;6.790;2023-04-29T02:01:17;9.10;99.90
58413;DHT22;44209;52.952;6.790;2023-04-29T02:03:42;9.10;99.90
58413;DHT22;44209;52.952;6.790;2023-04-29T02:06:08;9.10;99.90
58413;DHT22;44209;52.952;6.790;2023-04-29T02:08:34;9.10;99.90
58413;DHT22;44209;52.952;6.790;2023-04-29T02:11:00;9.10;99.90
58413;DHT22;44209;52.952;6.790;2023-04-29T02:13:25;9.10;99.90
58413;DHT22;44209;52.952;6.790;2023-04-29T02:15:51;9.10;99.90
58413;DHT22;44209;52.952;6.790;2023-04-29T02:18:17;9.10;99.90
58413;DHT22;44209;52.952;6.790;2023-04-29T02:20:43;9.10;99.90
58413;DHT22;44209;52.952;6.790;2023-04-29T02:23:09;9.10;99.90
58413;DHT22;44209;52.952;6.790;2023-04-29T02:25:35;9.10;99.90
58413;DHT22;44209;52.952;6.790;2023-04-29T02:28:01;9.10;99.90
58413;DHT22;44209;52.952;6.790;2023-04-29T02:30:27;9.10;99.90
58413;DHT22;44209;52.952;6.790;2023-04-29T02:32:52;9.10;99.90
58413;DHT22;44209;52.952;6.790;2023-04-29T02:35:18;9.00;99.90
58413;DHT22;44209;52.952;6.790;2023-04-29T02:37:45;9.10;99.90
58413;DHT22;44209;52.952;6.790;2023-04-29T02:40:11;9.00;99.90
58413;DHT22;44209;52.952;6.790;2023-04-29T02:42:37;9.00;99.90
58413;DHT22;44209;52.952;6.790;2023-04-29T02:45:03;9.00;99.90
58413;DHT22;44209;52.952;6.790;2023-04-29T02:47:28;9.00;99.90
58413;DHT22;44209;52.952;6.790;2023-04-29T02:49:54;9.00;99.90
58413;DHT22;44209;52.952;6.790;2023-04-29T02:52:20;9.00;99.90
58413;DHT22;44209;52.952;6.790;2023-04-29T02:54:46;9.00;99.90
58413;DHT22;44209;52.952;6.790;2023-04-29T02:57:11;9.00;99.90
58413;DHT22;44209;52.952;6.790;2023-04-29T02:59:37;9.00;99.90
58413;DHT22;44209;52.952;6.790;2023-04-29T03:02:03;9.00;99.90
58413;DHT22;44209;52.952;6.790;2023-04-29T03:04:29;9.00;99.90
58413;DHT22;44209;52.952;6.790;2023-04-29T03:06:55;8.90;99.90
58413;DHT22;44209;52.952;6.790;2023-04-29T03:09:23;8.90;99.90
58413;DHT22;44209;52.952;6.790;2023-04-29T03:11:49;8.90;99.90
58413;DHT22;44209;52.952;6.790;2023-04-29T03:14:15;8.90;99.90
58413;DHT22;44209;52.952;6.790;2023-04-29T03:16:41;8.90;99.90
58413;DHT22;44209;52.952;6.790;2023-04-29T03:19:07;8.90;99.90
58413;DHT22;44209;52.952;6.790;2023-04-29T03:21:33;8.80;99.90
58413;DHT22;44209;52.952;6.790;2023-04-29T03:23:59;8.90;99.90
58413;DHT22;44209;52.952;6.790;2023-04-29T03:26:24;8.80;99.90
58413;DHT22;44209;52.952;6.790;2023-04-29T03:28:50;8.90;99.90
58413;DHT22;44209;52.952;6.790;2023-04-29T03:31:16;8.90;99.90
58413;DHT22;44209;52.952;6.790;2023-04-29T03:33:42;8.80;99.90
58413;DHT22;44209;52.952;6.790;2023-04-29T03:36:08;8.80;99.90
58413;DHT22;44209;52.952;6.790;2023-04-29T03:38:34;8.80;99.90
58413;DHT22;44209;52.952;6.790;2023-04-29T03:41:00;8.80;99.90
58413;DHT22;44209;52.952;6.790;2023-04-29T03:43:26;8.80;99.90
58413;DHT22;44209;52.952;6.790;2023-04-29T03:45:52;8.70;99.90
58413;DHT22;44209;52.952;6.790;2023-04-29T03:48:18;8.70;99.90
58413;DHT22;44209;52.952;6.790;2023-04-29T03:50:46;8.70;99.90
58413;DHT22;44209;52.952;6.790;2023-04-29T03:53:12;8.70;99.90
58413;DHT22;44209;52.952;6.790;2023-04-29T03:55:38;8.70;99.90
58413;DHT22;44209;52.952;6.790;2023-04-29T03:58:04;8.70;99.90
58413;DHT22;44209;52.952;6.790;2023-04-29T04:00:30;8.70;99.90
58413;DHT22;44209;52.952;6.790;2023-04-29T04:02:59;8.70;99.90
58413;DHT22;44209;52.952;6.790;2023-04-29T04:05:25;8.70;99.90
58413;DHT22;44209;52.952;6.790;2023-04-29T04:07:51;8.60;99.90
58413;DHT22;44209;52.952;6.790;2023-04-29T04:10:17;8.60;99.90
58413;DHT22;44209;52.952;6.790;2023-04-29T04:12:43;8.60;99.90
58413;DHT22;44209;52.952;6.790;2023-04-29T04:15:10;8.70;99.90
58413;DHT22;44209;52.952;6.790;2023-04-29T04:17:35;8.60;99.90
58413;DHT22;44209;52.952;6.790;2023-04-29T04:20:01;8.70;99.90
58413;DHT22;44209;52.952;6.790;2023-04-29T04:22:27;8.60;99.90
58413;DHT22;44209;52.952;6.790;2023-04-29T04:24:56;8.60;99.90
58413;DHT22;44209;52.952;6.790;2023-04-29T04:27:22;8.70;99.90
58413;DHT22;44209;52.952;6.790;2023-04-29T04:29:51;8.70;99.90
58413;DHT22;44209;52.952;6.790;2023-04-29T04:32:17;8.70;99.90
58413;DHT22;44209;52.952;6.790;2023-04-29T04:34:43;8.70;99.90
58413;DHT22;44209;52.952;6.790;2023-04-29T04:37:08;8.70;99.90
58413;DHT22;44209;52.952;6.790;2023-04-29T04:39:34;8.70;99.90
58413;DHT22;44209;52.952;6.790;2023-04-29T04:42:00;8.70;99.90
58413;DHT22;44209;52.952;6.790;2023-04-29T04:44:27;8.70;99.90
58413;DHT22;44209;52.952;6.790;2023-04-29T04:46:53;8.70;99.90
58413;DHT22;44209;52.952;6.790;2023-04-29T04:49:18;8.70;99.90
58413;DHT22;44209;52.952;6.790;2023-04-29T04:51:44;8.70;99.90
58413;DHT22;44209;52.952;6.790;2023-04-29T04:54:10;8.70;99.90
58413;DHT22;44209;52.952;6.790;2023-04-29T04:56:36;8.80;99.90
58413;DHT22;44209;52.952;6.790;2023-04-29T04:59:02;8.80;99.90
58413;DHT22;44209;52.952;6.790;2023-04-29T05:01:28;8.70;99.90
58413;DHT22;44209;52.952;6.790;2023-04-29T05:03:54;8.80;99.90
58413;DHT22;44209;52.952;6.790;2023-04-29T05:06:20;8.80;99.90
58413;DHT22;44209;52.952;6.790;2023-04-29T05:08:46;8.80;99.90
58413;DHT22;44209;52.952;6.790;2023-04-29T05:11:18;8.80;99.90
58413;DHT22;44209;52.952;6.790;2023-04-29T05:13:44;8.80;99.90
58413;DHT22;44209;52.952;6.790;2023-04-29T05:16:10;8.80;99.90
58413;DHT22;44209;52.952;6.790;2023-04-29T05:18:36;8.80;99.90
58413;DHT22;44209;52.952;6.790;2023-04-29T05:21:02;8.80;99.90
58413;DHT22;44209;52.952;6.790;2023-04-29T05:23:27;8.80;99.90
58413;DHT22;44209;52.952;6.790;2023-04-29T05:25:53;8.80;99.90
58413;DHT22;44209;52.952;6.790;2023-04-29T05:28:19;8.80;99.90
58413;DHT22;44209;52.952;6.790;2023-04-29T05:30:45;8.80;99.90
58413;DHT22;44209;52.952;6.790;2023-04-29T05:33:12;8.80;99.90
58413;DHT22;44209;52.952;6.790;2023-04-29T05:35:37;8.80;99.90
58413;DHT22;44209;52.952;6.790;2023-04-29T05:38:03;8.80;99.90
58413;DHT22;44209;52.952;6.790;2023-04-29T05:40:29;8.80;99.90
58413;DHT22;44209;52.952;6.790;2023-04-29T05:42:54;8.80;99.90
58413;DHT22;44209;52.952;6.790;2023-04-29T05:45:20;8.90;99.90
58413;DHT22;44209;52.952;6.790;2023-04-29T05:47:46;8.80;99.90
58413;DHT22;44209;52.952;6.790;2023-04-29T05:50:11;8.80;99.90
58413;DHT22;44209;52.952;6.790;2023-04-29T05:52:37;8.90;99.90
58413;DHT22;44209;52.952;6.790;2023-04-29T05:55:03;8.90;99.90
58413;DHT22;44209;52.952;6.790;2023-04-29T05:57:29;8.90;99.90
58413;DHT22;44209;52.952;6.790;2023-04-29T05:59:55;8.90;99.90
58413;DHT22;44209;52.952;6.790;2023-04-29T06:02:21;8.90;99.90
58413;DHT22;44209;52.952;6.790;2023-04-29T06:04:47;8.90;99.90
58413;DHT22;44209;52.952;6.790;2023-04-29T06:07:13;8.90;99.90
58413;DHT22;44209;52.952;6.790;2023-04-29T06:09:39;8.90;99.90
58413;DHT22;44209;52.952;6.790;2023-04-29T06:12:05;8.90;99.90
58413;DHT22;44209;52.952;6.790;2023-04-29T06:14:31;9.00;99.90
58413;DHT22;44209;52.952;6.790;2023-04-29T06:16:57;9.00;99.90
58413;DHT22;44209;52.952;6.790;2023-04-29T06:19:22;9.00;99.90
58413;DHT22;44209;52.952;6.790;2023-04-29T06:21:49;9.00;99.90
58413;DHT22;44209;52.952;6.790;2023-04-29T06:24:15;9.10;99.90
58413;DHT22;44209;52.952;6.790;2023-04-29T06:26:41;9.10;99.90
58413;DHT22;44209;52.952;6.790;2023-04-29T06:29:07;9.10;99.90
58413;DHT22;44209;52.952;6.790;2023-04-29T06:31:33;9.10;99.90
58413;DHT22;44209;52.952;6.790;2023-04-29T06:33:58;9.20;99.90
58413;DHT22;44209;52.952;6.790;2023-04-29T06:36:24;9.20;99.90
58413;DHT22;44209;52.952;6.790;2023-04-29T06:38:52;9.30;99.90
58413;DHT22;44209;52.952;6.790;2023-04-29T06:41:17;9.40;99.90
58413;DHT22;44209;52.952;6.790;2023-04-29T06:43:43;9.40;99.90
58413;DHT22;44209;52.952;6.790;2023-04-29T06:46:09;9.50;99.90
58413;DHT22;44209;52.952;6.790;2023-04-29T06:48:36;9.50;99.90
58413;DHT22;44209;52.952;6.790;2023-04-29T06:51:01;9.60;99.90
58413;DHT22;44209;52.952;6.790;2023-04-29T06:53:27;9.60;99.90
58413;DHT22;44209;52.952;6.790;2023-04-29T06:55:53;9.60;99.90
58413;DHT22;44209;52.952;6.790;2023-04-29T06:58:19;9.70;99.90
58413;DHT22;44209;52.952;6.790;2023-04-29T07:00:48;9.70;99.90
58413;DHT22;44209;52.952;6.790;2023-04-29T07:03:16;9.80;99.90
58413;DHT22;44209;52.952;6.790;2023-04-29T07:05:42;9.80;99.90
58413;DHT22;44209;52.952;6.790;2023-04-29T07:08:10;9.80;99.90
58413;DHT22;44209;52.952;6.790;2023-04-29T07:10:37;9.90;99.90
58413;DHT22;44209;52.952;6.790;2023-04-29T07:13:02;10.10;99.90
58413;DHT22;44209;52.952;6.790;2023-04-29T07:15:29;10.20;99.90
58413;DHT22;44209;52.952;6.790;2023-04-29T07:17:55;10.30;99.90
58413;DHT22;44209;52.952;6.790;2023-04-29T07:20:21;10.50;99.90
58413;DHT22;44209;52.952;6.790;2023-04-29T07:22:47;10.60;99.90
58413;DHT22;44209;52.952;6.790;2023-04-29T07:25:13;10.80;99.90
58413;DHT22;44209;52.952;6.790;2023-04-29T07:27:39;10.90;99.90
58413;DHT22;44209;52.952;6.790;2023-04-29T07:30:05;11.00;99.90
58413;DHT22;44209;52.952;6.790;2023-04-29T07:32:31;11.10;99.90
58413;DHT22;44209;52.952;6.790;2023-04-29T07:34:58;11.10;99.90
58413;DHT22;44209;52.952;6.790;2023-04-29T07:37:23;11.00;99.90
58413;DHT22;44209;52.952;6.790;2023-04-29T07:39:49;11.10;99.90
58413;DHT22;44209;52.952;6.790;2023-04-29T07:42:15;11.00;99.90
58413;DHT22;44209;52.952;6.790;2023-04-29T07:44:41;10.90;99.90
58413;DHT22;44209;52.952;6.790;2023-04-29T07:47:07;10.90;99.90
58413;DHT22;44209;52.952;6.790;2023-04-29T07:49:33;11.00;99.90
58413;DHT22;44209;52.952;6.790;2023-04-29T07:51:59;11.00;99.90
58413;DHT22;44209;52.952;6.790;2023-04-29T07:54:26;11.10;99.90
58413;DHT22;44209;52.952;6.790;2023-04-29T07:56:52;11.20;99.90
58413;DHT22;44209;52.952;6.790;2023-04-29T07:59:18;11.30;99.90
58413;DHT22;44209;52.952;6.790;2023-04-29T08:01:43;11.40;99.90
58413;DHT22;44209;52.952;6.790;2023-04-29T08:04:09;11.40;99.90
58413;DHT22;44209;52.952;6.790;2023-04-29T08:06:35;11.50;99.90
58413;DHT22;44209;52.952;6.790;2023-04-29T08:09:00;11.70;99.90
58413;DHT22;44209;52.952;6.790;2023-04-29T08:11:26;11.80;99.90
58413;DHT22;44209;52.952;6.790;2023-04-29T08:13:52;11.90;99.90
58413;DHT22;44209;52.952;6.790;2023-04-29T08:16:19;12.00;99.90
58413;DHT22;44209;52.952;6.790;2023-04-29T08:18:46;12.10;99.90
58413;DHT22;44209;52.952;6.790;2023-04-29T08:21:11;12.20;99.90
58413;DHT22;44209;52.952;6.790;2023-04-29T08:23:38;12.30;99.90
58413;DHT22;44209;52.952;6.790;2023-04-29T08:26:04;12.30;99.90
58413;DHT22;44209;52.952;6.790;2023-04-29T08:28:30;12.30;99.90
58413;DHT22;44209;52.952;6.790;2023-04-29T08:30:55;12.30;99.90
58413;DHT22;44209;52.952;6.790;2023-04-29T08:33:21;12.40;99.90
58413;DHT22;44209;52.952;6.790;2023-04-29T08:35:47;12.40;99.90
58413;DHT22;44209;52.952;6.790;2023-04-29T08:38:13;12.50;99.90
58413;DHT22;44209;52.952;6.790;2023-04-29T08:40:44;12.60;99.90
58413;DHT22;44209;52.952;6.790;2023-04-29T08:43:11;12.60;99.90
58413;DHT22;44209;52.952;6.790;2023-04-29T08:45:38;12.60;99.90
58413;DHT22;44209;52.952;6.790;2023-04-29T08:48:06;12.70;99.90
58413;DHT22;44209;52.952;6.790;2023-04-29T08:50:36;12.70;99.90
58413;DHT22;44209;52.952;6.790;2023-04-29T08:53:08;12.80;99.90
58413;DHT22;44209;52.952;6.790;2023-04-29T08:55:44;13.00;99.90
58413;DHT22;44209;52.952;6.790;2023-04-29T08:58:11;12.80;99.90
58413;DHT22;44209;52.952;6.790;2023-04-29T09:00:39;12.80;99.90
58413;DHT22;44209;52.952;6.790;2023-04-29T09:05:42;13.10;99.90
58413;DHT22;44209;52.952;6.790;2023-04-29T09:08:11;13.30;99.90
58413;DHT22;44209;52.952;6.790;2023-04-29T09:10:43;13.20;99.90
58413;DHT22;44209;52.952;6.790;2023-04-29T09:13:25;13.10;99.90
58413;DHT22;44209;52.952;6.790;2023-04-29T09:15:51;13.00;99.90
58413;DHT22;44209;52.952;6.790;2023-04-29T09:21:25;13.20;99.90
58413;DHT22;44209;52.952;6.790;2023-04-29T09:23:53;13.30;99.90
58413;DHT22;44209;52.952;6.790;2023-04-29T09:26:19;13.20;99.90
58413;DHT22;44209;52.952;6.790;2023-04-29T09:28:46;13.10;99.90
58413;DHT22;44209;52.952;6.790;2023-04-29T09:31:26;13.10;99.90
58413;DHT22;44209;52.952;6.790;2023-04-29T09:33:56;13.00;99.90
58413;DHT22;44209;52.952;6.790;2023-04-29T09:36:49;13.20;99.90
58413;DHT22;44209;52.952;6.790;2023-04-29T09:39:20;13.40;99.90
58413;DHT22;44209;52.952;6.790;2023-04-29T09:44:20;14.00;99.90
58413;DHT22;44209;52.952;6.790;2023-04-29T09:47:05;13.70;99.90
58413;DHT22;44209;52.952;6.790;2023-04-29T09:52:02;13.50;99.90
58413;DHT22;44209;52.952;6.790;2023-04-29T09:54:30;13.60;99.90
58413;DHT22;44209;52.952;6.790;2023-04-29T09:56:57;13.70;99.90
58413;DHT22;44209;52.952;6.790;2023-04-29T09:59:24;13.80;99.90
58413;DHT22;44209;52.952;6.790;2023-04-29T10:01:51;13.70;99.90
58413;DHT22;44209;52.952;6.790;2023-04-29T10:04:19;13.70;99.90
58413;DHT22;44209;52.952;6.790;2023-04-29T10:06:47;14.00;99.90
58413;DHT22;44209;52.952;6.790;2023-04-29T10:09:14;13.70;99.90
58413;DHT22;44209;52.952;6.790;2023-04-29T10:11:42;13.70;99.90
58413;DHT22;44209;52.952;6.790;2023-04-29T10:14:14;13.80;99.90
58413;DHT22;44209;52.952;6.790;2023-04-29T10:16:48;14.00;99.90
58413;DHT22;44209;52.952;6.790;2023-04-29T10:19:23;14.20;99.90
58413;DHT22;44209;52.952;6.790;2023-04-29T10:21:50;14.40;99.90
58413;DHT22;44209;52.952;6.790;2023-04-29T10:24:17;14.40;99.90
58413;DHT22;44209;52.952;6.790;2023-04-29T10:26:45;14.40;99.90
58413;DHT22;44209;52.952;6.790;2023-04-29T10:29:13;14.60;99.90
58413;DHT22;44209;52.952;6.790;2023-04-29T10:31:40;14.50;99.90
58413;DHT22;44209;52.952;6.790;2023-04-29T10:34:07;14.40;99.90
58413;DHT22;44209;52.952;6.790;2023-04-29T10:36:33;14.30;99.90
58413;DHT22;44209;52.952;6.790;2023-04-29T10:39:02;13.90;99.90
58413;DHT22;44209;52.952;6.790;2023-04-29T10:41:58;13.80;99.90
58413;DHT22;44209;52.952;6.790;2023-04-29T10:44:24;14.00;99.90
58413;DHT22;44209;52.952;6.790;2023-04-29T10:47:19;14.00;99.90
58413;DHT22;44209;52.952;6.790;2023-04-29T10:50:01;14.20;99.90
58413;DHT22;44209;52.952;6.790;2023-04-29T10:52:28;14.40;99.90
58413;DHT22;44209;52.952;6.790;2023-04-29T10:55:01;14.30;99.90
58413;DHT22;44209;52.952;6.790;2023-04-29T10:57:29;14.30;99.90
58413;DHT22;44209;52.952;6.790;2023-04-29T10:59:54;14.40;99.90
58413;DHT22;44209;52.952;6.790;2023-04-29T11:02:20;14.50;99.90
58413;DHT22;44209;52.952;6.790;2023-04-29T11:05:08;14.50;99.90
58413;DHT22;44209;52.952;6.790;2023-04-29T11:07:34;14.70;99.90
58413;DHT22;44209;52.952;6.790;2023-04-29T11:10:01;14.60;99.90
58413;DHT22;44209;52.952;6.790;2023-04-29T11:12:27;14.60;99.90
58413;DHT22;44209;52.952;6.790;2023-04-29T11:14:53;14.70;99.90
58413;DHT22;44209;52.952;6.790;2023-04-29T11:17:26;14.80;99.90
58413;DHT22;44209;52.952;6.790;2023-04-29T11:19:59;14.90;99.90
58413;DHT22;44209;52.952;6.790;2023-04-29T11:22:26;15.10;99.90
58413;DHT22;44209;52.952;6.790;2023-04-29T11:25:06;15.20;99.90
58413;DHT22;44209;52.952;6.790;2023-04-29T11:27:32;15.20;99.90
58413;DHT22;44209;52.952;6.790;2023-04-29T11:30:00;15.20;99.90
58413;DHT22;44209;52.952;6.790;2023-04-29T11:32:30;15.20;99.90
58413;DHT22;44209;52.952;6.790;2023-04-29T11:35:09;15.30;99.90
58413;DHT22;44209;52.952;6.790;2023-04-29T11:37:36;15.50;99.90
58413;DHT22;44209;52.952;6.790;2023-04-29T11:40:02;15.60;99.90
58413;DHT22;44209;52.952;6.790;2023-04-29T11:42:28;15.50;99.90
58413;DHT22;44209;52.952;6.790;2023-04-29T11:44:54;15.50;99.90
58413;DHT22;44209;52.952;6.790;2023-04-29T11:47:28;15.40;99.90
58413;DHT22;44209;52.952;6.790;2023-04-29T11:50:02;15.30;99.90
58413;DHT22;44209;52.952;6.790;2023-04-29T11:52:29;15.10;99.90
58413;DHT22;44209;52.952;6.790;2023-04-29T11:54:57;15.20;99.90
58413;DHT22;44209;52.952;6.790;2023-04-29T11:57:23;15.20;99.90
58413;DHT22;44209;52.952;6.790;2023-04-29T11:59:49;15.30;99.90
58413;DHT22;44209;52.952;6.790;2023-04-29T12:02:15;15.30;99.90
58413;DHT22;44209;52.952;6.790;2023-04-29T12:04:46;15.20;99.90
58413;DHT22;44209;52.952;6.790;2023-04-29T12:07:15;15.20;99.90
58413;DHT22;44209;52.952;6.790;2023-04-29T12:09:42;15.10;99.90
58413;DHT22;44209;52.952;6.790;2023-04-29T12:12:09;15.10;99.90
58413;DHT22;44209;52.952;6.790;2023-04-29T12:14:35;15.10;99.90
58413;DHT22;44209;52.952;6.790;2023-04-29T12:17:02;15.20;99.90
58413;DHT22;44209;52.952;6.790;2023-04-29T12:19:28;15.30;99.90
58413;DHT22;44209;52.952;6.790;2023-04-29T12:21:57;15.20;99.90
58413;DHT22;44209;52.952;6.790;2023-04-29T12:24:23;15.30;99.90
58413;DHT22;44209;52.952;6.790;2023-04-29T12:26:49;15.00;99.90
58413;DHT22;44209;52.952;6.790;2023-04-29T12:29:15;14.90;99.90
58413;DHT22;44209;52.952;6.790;2023-04-29T12:31:41;14.80;99.90
58413;DHT22;44209;52.952;6.790;2023-04-29T12:34:07;14.80;99.40
58413;DHT22;44209;52.952;6.790;2023-04-29T12:36:33;14.90;99.90
58413;DHT22;44209;52.952;6.790;2023-04-29T12:38:59;15.00;97.50
58413;DHT22;44209;52.952;6.790;2023-04-29T12:41:36;15.10;95.80
58413;DHT22;44209;52.952;6.790;2023-04-29T12:44:02;15.10;88.70
58413;DHT22;44209;52.952;6.790;2023-04-29T12:46:33;15.10;89.30
58413;DHT22;44209;52.952;6.790;2023-04-29T12:49:01;15.20;90.80
58413;DHT22;44209;52.952;6.790;2023-04-29T12:51:31;15.30;91.60
58413;DHT22;44209;52.952;6.790;2023-04-29T12:54:01;15.30;90.30
58413;DHT22;44209;52.952;6.790;2023-04-29T12:56:31;15.20;90.00
58413;DHT22;44209;52.952;6.790;2023-04-29T12:59:07;15.20;91.10
58413;DHT22;44209;52.952;6.790;2023-04-29T13:01:34;15.30;91.70
58413;DHT22;44209;52.952;6.790;2023-04-29T13:04:00;15.30;93.10
58413;DHT22;44209;52.952;6.790;2023-04-29T13:06:26;15.30;93.60
58413;DHT22;44209;52.952;6.790;2023-04-29T13:08:52;15.30;93.30
58413;DHT22;44209;52.952;6.790;2023-04-29T13:11:18;15.30;93.90
58413;DHT22;44209;52.952;6.790;2023-04-29T13:13:43;15.40;95.80
58413;DHT22;44209;52.952;6.790;2023-04-29T13:16:09;15.40;96.20
58413;DHT22;44209;52.952;6.790;2023-04-29T13:18:35;15.40;94.50
58413;DHT22;44209;52.952;6.790;2023-04-29T13:21:01;15.40;91.40
58413;DHT22;44209;52.952;6.790;2023-04-29T13:23:27;15.30;92.90
58413;DHT22;44209;52.952;6.790;2023-04-29T13:25:53;15.20;91.00
58413;DHT22;44209;52.952;6.790;2023-04-29T13:28:18;15.20;88.80
58413;DHT22;44209;52.952;6.790;2023-04-29T13:30:44;15.30;88.80
58413;DHT22;44209;52.952;6.790;2023-04-29T13:33:10;15.30;88.60
58413;DHT22;44209;52.952;6.790;2023-04-29T13:35:36;15.30;87.20
58413;DHT22;44209;52.952;6.790;2023-04-29T13:38:03;15.40;91.00
58413;DHT22;44209;52.952;6.790;2023-04-29T13:40:29;15.20;88.20
58413;DHT22;44209;52.952;6.790;2023-04-29T13:42:55;15.30;92.10
58413;DHT22;44209;52.952;6.790;2023-04-29T13:45:20;15.20;92.40
58413;DHT22;44209;52.952;6.790;2023-04-29T13:47:46;15.20;91.80
58413;DHT22;44209;52.952;6.790;2023-04-29T13:50:12;15.30;91.60
58413;DHT22;44209;52.952;6.790;2023-04-29T13:52:38;15.50;91.60
58413;DHT22;44209;52.952;6.790;2023-04-29T13:55:03;15.60;87.30
58413;DHT22;44209;52.952;6.790;2023-04-29T13:57:29;15.30;80.90
58413;DHT22;44209;52.952;6.790;2023-04-29T13:59:55;15.40;80.00
58413;DHT22;44209;52.952;6.790;2023-04-29T14:02:21;15.40;77.40
58413;DHT22;44209;52.952;6.790;2023-04-29T14:04:47;15.30;76.40
58413;DHT22;44209;52.952;6.790;2023-04-29T14:07:13;15.30;76.80
58413;DHT22;44209;52.952;6.790;2023-04-29T14:09:39;15.40;78.00
58413;DHT22;44209;52.952;6.790;2023-04-29T14:12:05;15.40;78.90
58413;DHT22;44209;52.952;6.790;2023-04-29T14:14:31;15.40;79.40
58413;DHT22;44209;52.952;6.790;2023-04-29T14:16:57;15.40;79.70
58413;DHT22;44209;52.952;6.790;2023-04-29T14:19:23;15.30;81.20
58413;DHT22;44209;52.952;6.790;2023-04-29T14:21:48;15.20;84.90
58413;DHT22;44209;52.952;6.790;2023-04-29T14:24:14;15.20;85.60
58413;DHT22;44209;52.952;6.790;2023-04-29T14:26:40;15.30;89.10
58413;DHT22;44209;52.952;6.790;2023-04-29T14:29:06;15.30;90.30
58413;DHT22;44209;52.952;6.790;2023-04-29T14:31:35;15.40;92.20
58413;DHT22;44209;52.952;6.790;2023-04-29T14:34:04;15.30;90.50
58413;DHT22;44209;52.952;6.790;2023-04-29T14:36:30;15.30;93.70
58413;DHT22;44209;52.952;6.790;2023-04-29T14:38:58;15.30;96.90
58413;DHT22;44209;52.952;6.790;2023-04-29T14:41:24;15.20;99.90
58413;DHT22;44209;52.952;6.790;2023-04-29T14:43:50;15.10;99.90
58413;DHT22;44209;52.952;6.790;2023-04-29T14:46:16;15.10;99.90
58413;DHT22;44209;52.952;6.790;2023-04-29T14:48:42;15.00;99.90
58413;DHT22;44209;52.952;6.790;2023-04-29T14:51:07;14.70;99.90
58413;DHT22;44209;52.952;6.790;2023-04-29T14:53:33;14.60;99.90
58413;DHT22;44209;52.952;6.790;2023-04-29T14:55:59;14.70;99.90
58413;DHT22;44209;52.952;6.790;2023-04-29T14:58:25;14.80;99.90
58413;DHT22;44209;52.952;6.790;2023-04-29T15:00:51;14.70;99.90
58413;DHT22;44209;52.952;6.790;2023-04-29T15:03:17;14.80;99.90
58413;DHT22;44209;52.952;6.790;2023-04-29T15:05:43;14.60;99.90
58413;DHT22;44209;52.952;6.790;2023-04-29T15:08:09;14.60;99.90
58413;DHT22;44209;52.952;6.790;2023-04-29T15:10:35;14.70;99.90
58413;DHT22;44209;52.952;6.790;2023-04-29T15:13:00;14.80;99.90
58413;DHT22;44209;52.952;6.790;2023-04-29T15:15:26;15.00;99.90
58413;DHT22;44209;52.952;6.790;2023-04-29T15:17:52;14.70;99.90
58413;DHT22;44209;52.952;6.790;2023-04-29T15:20:18;14.60;99.90
58413;DHT22;44209;52.952;6.790;2023-04-29T15:22:44;14.50;99.90
58413;DHT22;44209;52.952;6.790;2023-04-29T15:25:09;14.50;99.90
58413;DHT22;44209;52.952;6.790;2023-04-29T15:27:36;14.50;99.90
58413;DHT22;44209;52.952;6.790;2023-04-29T15:30:05;14.30;99.90
58413;DHT22;44209;52.952;6.790;2023-04-29T15:32:31;14.20;99.90
58413;DHT22;44209;52.952;6.790;2023-04-29T15:34:58;13.90;99.90
58413;DHT22;44209;52.952;6.790;2023-04-29T15:37:25;13.70;99.90
58413;DHT22;44209;52.952;6.790;2023-04-29T15:39:52;13.50;99.90
58413;DHT22;44209;52.952;6.790;2023-04-29T15:42:18;13.40;99.90
58413;DHT22;44209;52.952;6.790;2023-04-29T15:44:44;13.20;99.90
58413;DHT22;44209;52.952;6.790;2023-04-29T15:47:09;13.20;99.90
58413;DHT22;44209;52.952;6.790;2023-04-29T15:49:36;13.10;99.90
58413;DHT22;44209;52.952;6.790;2023-04-29T15:52:02;13.10;99.90
58413;DHT22;44209;52.952;6.790;2023-04-29T15:54:35;13.10;99.90
58413;DHT22;44209;52.952;6.790;2023-04-29T15:57:01;13.00;99.90
58413;DHT22;44209;52.952;6.790;2023-04-29T15:59:30;13.00;99.90
58413;DHT22;44209;52.952;6.790;2023-04-29T16:01:56;13.10;99.90